createdAt,value
2023-05-24T00:00:27.126Z,12.56
2023-05-24T00:02:55.168Z,12.46
2023-05-24T00:05:23.739Z,12.52
2023-05-24T00:07:51.329Z,12.32
2023-05-24T00:10:18.892Z,12.30
2023-05-24T00:12:46.438Z,12.31
2023-05-24T00:15:13.979Z,12.27
2023-05-24T00:17:42.890Z,12.37
2023-05-24T00:20:12.105Z,12.45
2023-05-24T00:22:40.151Z,12.41
2023-05-24T00:25:08.224Z,12.37
2023-05-24T00:27:37.392Z,12.27
2023-05-24T00:30:06.394Z,12.32
2023-05-24T00:32:34.241Z,12.24
2023-05-24T00:35:01.803Z,12.23
2023-05-24T00:37:29.777Z,12.02
2023-05-24T00:39:57.407Z,12.03
2023-05-24T00:42:25.026Z,11.92
2023-05-24T00:44:52.479Z,11.71
2023-05-24T00:47:20.244Z,11.72
2023-05-24T00:49:47.723Z,11.64
2023-05-24T00:52:15.724Z,11.74
2023-05-24T00:54:44.214Z,12.02
2023-05-24T00:57:14.157Z,11.94
2023-05-24T00:59:43.001Z,11.92
2023-05-24T01:02:10.676Z,11.83
2023-05-24T01:04:38.407Z,11.74
2023-05-24T01:07:26.965Z,11.69
2023-05-24T01:10:13.529Z,11.76
2023-05-24T01:12:51.065Z,11.71
2023-05-24T01:15:28.622Z,11.69
2023-05-24T01:18:14.238Z,11.82
2023-05-24T01:20:43.478Z,11.78
2023-05-24T01:24:10.064Z,11.69
2023-05-24T01:26:48.960Z,11.57
2023-05-24T01:29:16.973Z,11.52
2023-05-24T01:31:44.843Z,11.54
2023-05-24T01:34:12.546Z,11.43
2023-05-24T01:36:40.844Z,11.35
2023-05-24T01:39:08.466Z,11.42
2023-05-24T01:41:52.307Z,11.31
2023-05-24T01:44:38.202Z,11.31
2023-05-24T01:47:24.793Z,11.23
2023-05-24T01:49:57.511Z,11.29
2023-05-24T01:52:31.885Z,11.22
2023-05-24T01:55:01.299Z,11.23
2023-05-24T01:57:30.030Z,11.18
2023-05-24T01:59:59.626Z,11.08
2023-05-24T02:02:27.438Z,11.11
2023-05-24T02:04:55.123Z,11.21
2023-05-24T02:07:22.764Z,11.24
2023-05-24T02:09:50.527Z,11.16
2023-05-24T02:12:18.021Z,11.16
2023-05-24T02:14:45.581Z,11.09
2023-05-24T02:17:13.081Z,11.05
2023-05-24T02:19:41.243Z,11.00
2023-05-24T02:22:09.308Z,10.97
2023-05-24T02:24:37.956Z,10.83
2023-05-24T02:27:05.653Z,10.82
2023-05-24T02:29:33.227Z,10.87
2023-05-24T02:32:00.750Z,10.79
2023-05-24T02:34:28.320Z,10.67
2023-05-24T02:36:56.030Z,10.75
2023-05-24T02:39:23.462Z,10.75
2023-05-24T02:41:50.762Z,10.62
2023-05-24T02:44:18.137Z,10.67
2023-05-24T02:46:45.913Z,10.66
2023-05-24T02:49:13.902Z,10.71
2023-05-24T02:51:41.425Z,10.72
2023-05-24T02:54:08.989Z,10.68
2023-05-24T02:56:37.603Z,10.54
2023-05-24T02:59:05.194Z,10.46
2023-05-24T03:01:34.562Z,10.50
2023-05-24T03:04:03.551Z,10.53
2023-05-24T03:06:31.542Z,10.53
2023-05-24T03:08:59.390Z,10.55
2023-05-24T03:11:27.329Z,10.52
2023-05-24T03:13:54.801Z,10.43
2023-05-24T03:16:22.270Z,10.46
2023-05-24T03:18:55.425Z,10.46
2023-05-24T03:21:23.609Z,10.45
2023-05-24T03:23:51.213Z,10.41
2023-05-24T03:26:19.200Z,10.39
2023-05-24T03:28:47.729Z,10.32
2023-05-24T03:31:15.489Z,10.48
2023-05-24T03:33:42.941Z,10.39
2023-05-24T03:36:10.546Z,10.39
2023-05-24T03:38:38.542Z,10.35
2023-05-24T03:41:06.541Z,10.42
2023-05-24T03:43:34.948Z,10.47
2023-05-24T03:46:06.225Z,10.41
2023-05-24T03:48:33.748Z,10.43
2023-05-24T03:51:01.022Z,10.42
2023-05-24T03:53:28.536Z,10.33
2023-05-24T03:55:56.191Z,10.31
2023-05-24T03:58:23.733Z,10.34
2023-05-24T04:00:51.739Z,10.21
2023-05-24T04:05:48.095Z,10.34
2023-05-24T04:08:16.562Z,10.29
2023-05-24T04:10:44.446Z,10.33
2023-05-24T04:13:12.862Z,10.25
2023-05-24T04:15:40.728Z,10.20
2023-05-24T04:18:08.288Z,10.27
2023-05-24T04:20:36.047Z,10.08
2023-05-24T04:23:03.871Z,10.12
2023-05-24T04:25:33.508Z,10.04
2023-05-24T04:28:04.031Z,10.13
2023-05-24T04:30:33.149Z,10.13
2023-05-24T04:33:00.792Z,10.14
2023-05-24T04:35:30.363Z,10.25
2023-05-24T04:37:59.843Z,10.21
2023-05-24T04:40:27.341Z,10.25
2023-05-24T04:42:54.643Z,10.38
2023-05-24T04:45:22.137Z,10.38
2023-05-24T04:47:49.777Z,10.48
2023-05-24T04:50:17.549Z,10.52
2023-05-24T04:52:45.172Z,10.62
2023-05-24T04:55:12.752Z,10.75
2023-05-24T04:57:40.152Z,10.79
2023-05-24T05:00:08.264Z,10.76
2023-05-24T05:02:36.163Z,10.93
2023-05-24T05:05:03.929Z,10.98
2023-05-24T05:07:31.337Z,11.07
2023-05-24T05:09:58.849Z,11.10
2023-05-24T05:12:26.188Z,11.16
2023-05-24T05:14:53.663Z,11.16
2023-05-24T05:17:21.896Z,11.20
2023-05-24T05:19:49.709Z,11.22
2023-05-24T05:22:17.527Z,11.31
2023-05-24T05:24:45.078Z,11.44
2023-05-24T05:27:12.530Z,11.61
2023-05-24T05:29:40.107Z,11.67
2023-05-24T05:32:07.636Z,11.46
2023-05-24T05:34:35.972Z,11.54
2023-05-24T05:37:03.387Z,11.41
2023-05-24T05:39:32.079Z,11.53
2023-05-24T05:42:00.162Z,11.62
2023-05-24T05:44:27.955Z,11.62
2023-05-24T05:46:55.977Z,11.79
2023-05-24T05:49:23.648Z,11.74
2023-05-24T05:51:53.042Z,11.66
2023-05-24T05:54:20.748Z,11.80
2023-05-24T05:56:48.337Z,12.07
2023-05-24T05:59:16.139Z,12.41
2023-05-24T06:01:47.181Z,12.62
2023-05-24T06:04:18.315Z,12.74
2023-05-24T06:06:49.607Z,13.06
2023-05-24T06:09:17.576Z,13.68
2023-05-24T06:11:45.206Z,13.92
2023-05-24T06:14:20.003Z,14.25
2023-05-24T06:16:48.262Z,14.39
2023-05-24T06:19:16.745Z,14.21
2023-05-24T06:21:50.213Z,14.17
2023-05-24T06:24:22.329Z,14.29
2023-05-24T06:26:52.965Z,14.33
2023-05-24T06:29:21.966Z,14.20
2023-05-24T06:31:49.939Z,14.03
2023-05-24T06:34:21.400Z,13.93
2023-05-24T06:36:51.316Z,14.20
2023-05-24T06:39:19.404Z,14.19
2023-05-24T06:41:47.464Z,14.15
2023-05-24T06:44:16.459Z,14.44
2023-05-24T06:46:44.328Z,14.96
2023-05-24T06:49:12.495Z,15.20
2023-05-24T06:51:40.253Z,15.37
2023-05-24T06:54:08.041Z,15.58
2023-05-24T06:56:35.772Z,15.88
2023-05-24T06:59:03.193Z,16.18
2023-05-24T07:01:30.745Z,15.61
2023-05-24T07:03:58.271Z,15.23
2023-05-24T07:06:25.866Z,15.40
2023-05-24T07:08:53.450Z,15.78
2023-05-24T07:11:21.147Z,16.14
2023-05-24T07:13:48.572Z,16.64
2023-05-24T07:16:16.172Z,16.84
2023-05-24T07:18:43.685Z,17.02
2023-05-24T07:21:11.190Z,17.03
2023-05-24T07:23:38.658Z,17.09
2023-05-24T07:26:06.232Z,17.00
2023-05-24T07:28:34.572Z,17.58
2023-05-24T07:31:02.681Z,17.48
2023-05-24T07:33:30.299Z,17.51
2023-05-24T07:35:58.797Z,17.68
2023-05-24T07:38:34.002Z,17.52
2023-05-24T07:43:51.211Z,18.48
2023-05-24T07:46:21.758Z,18.98
2023-05-24T07:48:51.829Z,18.49
2023-05-24T07:51:19.476Z,18.60
2023-05-24T07:53:47.372Z,18.94
2023-05-24T07:56:15.287Z,19.41
2023-05-24T07:58:45.693Z,19.37
2023-05-24T08:01:13.408Z,19.15
2023-05-24T08:03:41.127Z,19.48
2023-05-24T08:06:10.123Z,19.93
2023-05-24T08:08:37.679Z,19.60
2023-05-24T08:11:05.248Z,19.45
2023-05-24T08:13:32.756Z,19.42
2023-05-24T08:16:00.254Z,19.62
2023-05-24T08:18:27.945Z,20.01
2023-05-24T08:20:55.356Z,19.96
2023-05-24T08:23:23.013Z,19.81
2023-05-24T08:25:50.680Z,19.83
2023-05-24T08:28:18.430Z,20.03
2023-05-24T08:30:46.007Z,20.10
2023-05-24T08:33:14.281Z,19.79
2023-05-24T08:35:41.925Z,19.72
2023-05-24T08:38:09.976Z,19.89
2023-05-24T08:40:37.569Z,19.46
2023-05-24T08:43:11.918Z,19.70
2023-05-24T08:45:40.131Z,19.97
2023-05-24T08:48:08.570Z,20.22
2023-05-24T08:50:36.360Z,19.81
2023-05-24T08:53:07.203Z,20.39
2023-05-24T08:55:38.570Z,20.91
2023-05-24T08:58:06.895Z,21.03
2023-05-24T09:00:34.367Z,20.96
2023-05-24T09:03:02.182Z,21.12
2023-05-24T09:05:30.387Z,20.89
2023-05-24T09:08:01.127Z,20.43
2023-05-24T09:10:38.000Z,20.02
2023-05-24T09:13:16.032Z,20.26
2023-05-24T09:15:46.769Z,19.88
2023-05-24T09:18:14.438Z,19.47
2023-05-24T09:20:42.295Z,19.81
2023-05-24T09:23:11.251Z,20.57
2023-05-24T09:25:48.074Z,20.30
2023-05-24T09:28:17.827Z,20.48
2023-05-24T09:30:57.498Z,20.90
2023-05-24T09:33:30.661Z,21.54
2023-05-24T09:36:00.140Z,21.59
2023-05-24T09:38:28.335Z,20.47
2023-05-24T09:41:06.874Z,19.83
2023-05-24T09:43:46.831Z,19.46
2023-05-24T09:46:21.792Z,19.59
2023-05-24T09:49:11.027Z,19.13
2023-05-24T09:51:39.300Z,19.50
2023-05-24T09:54:06.915Z,20.10
2023-05-24T09:56:35.255Z,20.33
2023-05-24T09:59:10.032Z,20.77
2023-05-24T10:01:37.837Z,20.81
2023-05-24T10:04:10.216Z,20.86
2023-05-24T10:06:43.119Z,20.95
2023-05-24T10:09:11.596Z,21.12
2023-05-24T10:11:40.096Z,21.03
2023-05-24T10:14:09.984Z,20.85
2023-05-24T10:16:40.242Z,20.59
2023-05-24T10:19:07.805Z,20.09
2023-05-24T10:21:38.985Z,20.33
2023-05-24T10:24:10.039Z,19.98
2023-05-24T10:26:39.740Z,20.11
2023-05-24T10:29:13.648Z,20.32
2023-05-24T10:31:42.810Z,20.08
2023-05-24T10:34:10.867Z,20.13
2023-05-24T10:36:40.683Z,20.31
2023-05-24T10:39:11.410Z,20.45
2023-05-24T10:41:41.189Z,20.31
2023-05-24T10:44:16.417Z,20.77
2023-05-24T10:47:03.741Z,20.78
2023-05-24T10:49:31.507Z,20.78
2023-05-24T10:52:06.955Z,20.65
2023-05-24T10:54:36.023Z,20.83
2023-05-24T10:57:04.870Z,20.92
2023-05-24T10:59:38.077Z,20.98
2023-05-24T11:02:15.185Z,21.23
2023-05-24T11:04:46.583Z,21.36
2023-05-24T11:07:15.853Z,21.39
2023-05-24T11:09:46.935Z,21.49
2023-05-24T11:12:19.251Z,21.56
2023-05-24T11:14:52.452Z,21.32
2023-05-24T11:17:23.997Z,21.26
2023-05-24T11:19:53.918Z,20.95
2023-05-24T11:22:23.568Z,20.58
2023-05-24T11:24:53.340Z,19.87
2023-05-24T11:27:21.047Z,19.81
2023-05-24T11:29:49.252Z,19.55
2023-05-24T11:32:20.336Z,19.62
2023-05-24T11:34:49.156Z,19.91
2023-05-24T11:37:18.297Z,19.96
2023-05-24T11:39:52.994Z,20.17
2023-05-24T11:42:22.780Z,20.49
2023-05-24T11:44:50.660Z,20.48
2023-05-24T11:47:20.972Z,20.24
2023-05-24T11:49:52.167Z,20.13
2023-05-24T11:52:20.134Z,20.24
2023-05-24T11:54:48.605Z,20.36
2023-05-24T11:57:19.441Z,20.55
2023-05-24T11:59:47.049Z,20.80
2023-05-24T12:02:14.659Z,20.81
2023-05-24T12:04:42.208Z,20.79
2023-05-24T12:07:12.934Z,20.81
2023-05-24T12:09:40.531Z,20.91
2023-05-24T12:12:08.229Z,21.04
2023-05-24T12:14:36.379Z,20.91
2023-05-24T12:17:03.858Z,20.78
2023-05-24T12:19:35.286Z,20.96
2023-05-24T12:22:08.044Z,20.86
2023-05-24T12:24:37.648Z,20.82
2023-05-24T12:27:09.255Z,20.97
2023-05-24T12:29:40.066Z,20.48
2023-05-24T12:32:13.661Z,20.18
2023-05-24T12:34:43.267Z,20.33
2023-05-24T12:37:13.197Z,20.58
2023-05-24T12:39:43.948Z,20.76
2023-05-24T12:42:15.279Z,20.89
2023-05-24T12:44:43.109Z,20.59
2023-05-24T12:47:10.942Z,20.77
2023-05-24T12:49:39.114Z,21.19
2023-05-24T12:52:06.896Z,21.42
2023-05-24T12:54:34.762Z,21.38
2023-05-24T12:57:05.215Z,21.38
2023-05-24T12:59:33.880Z,21.37
2023-05-24T13:02:02.294Z,21.20
2023-05-24T13:04:31.890Z,20.89
2023-05-24T13:07:00.480Z,20.66
2023-05-24T13:09:28.256Z,20.83
2023-05-24T13:11:55.760Z,20.54
2023-05-24T13:14:23.484Z,20.67
2023-05-24T13:16:51.499Z,20.61
2023-05-24T13:19:19.168Z,20.75
2023-05-24T13:21:46.722Z,20.82
2023-05-24T13:24:17.534Z,20.70
2023-05-24T13:26:46.343Z,20.43
2023-05-24T13:31:45.017Z,20.75
2023-05-24T13:34:12.918Z,20.63
2023-05-24T13:36:40.616Z,20.71
2023-05-24T13:39:15.509Z,20.67
2023-05-24T13:41:45.032Z,20.74
2023-05-24T13:44:13.737Z,20.78
2023-05-24T13:46:41.997Z,20.86
2023-05-24T13:49:11.039Z,20.65
2023-05-24T13:51:39.325Z,20.64
2023-05-24T13:54:07.880Z,20.77
2023-05-24T13:56:36.668Z,20.90
2023-05-24T13:59:05.468Z,20.76
2023-05-24T14:01:34.302Z,20.65
2023-05-24T14:04:04.018Z,20.62
2023-05-24T14:06:32.933Z,20.69
2023-05-24T14:09:01.029Z,20.86
2023-05-24T14:11:31.758Z,20.90
2023-05-24T14:16:30.764Z,20.82
2023-05-24T14:18:58.371Z,20.74
2023-05-24T14:21:27.205Z,20.86
2023-05-24T14:23:55.115Z,20.78
2023-05-24T14:26:24.009Z,20.64
2023-05-24T14:28:54.380Z,20.39
2023-05-24T14:31:23.116Z,20.44
2023-05-24T14:33:50.904Z,20.52
2023-05-24T14:36:18.565Z,20.66
2023-05-24T14:38:46.752Z,20.66
2023-05-24T14:41:15.579Z,20.67
2023-05-24T14:43:43.080Z,20.43
2023-05-24T14:46:10.768Z,20.43
2023-05-24T14:48:41.451Z,20.58
2023-05-24T14:51:09.306Z,20.61
2023-05-24T14:53:36.987Z,20.66
2023-05-24T14:56:06.373Z,20.72
2023-05-24T14:58:34.127Z,20.90
2023-05-24T15:01:02.953Z,20.87
2023-05-24T15:03:30.592Z,20.75
2023-05-24T15:05:58.499Z,20.67
2023-05-24T15:08:26.226Z,20.73
2023-05-24T15:10:53.853Z,20.89
2023-05-24T15:13:23.093Z,21.02
2023-05-24T15:15:50.591Z,20.99
2023-05-24T15:18:18.061Z,21.03
2023-05-24T15:20:45.861Z,21.05
2023-05-24T15:23:13.579Z,20.96
2023-05-24T15:25:42.890Z,20.97
2023-05-24T15:28:12.951Z,21.09
2023-05-24T15:30:44.567Z,21.07
2023-05-24T15:33:13.430Z,21.10
2023-05-24T15:35:41.546Z,20.96
2023-05-24T15:38:09.121Z,20.87
2023-05-24T15:40:38.576Z,20.93
2023-05-24T15:43:06.758Z,20.96
2023-05-24T15:45:34.282Z,20.87
2023-05-24T15:48:04.623Z,20.89
2023-05-24T15:50:54.047Z,20.91
2023-05-24T15:53:23.019Z,20.99
2023-05-24T15:55:50.414Z,20.97
2023-05-24T15:58:18.520Z,20.98
2023-05-24T16:00:46.214Z,21.00
2023-05-24T16:03:15.911Z,21.06
2023-05-24T16:05:43.867Z,21.04
2023-05-24T16:08:11.495Z,21.13
2023-05-24T16:10:38.966Z,21.19
2023-05-24T16:13:06.748Z,21.12
2023-05-24T16:15:36.135Z,21.01
2023-05-24T16:18:10.738Z,21.07
2023-05-24T16:20:38.653Z,21.03
2023-05-24T16:23:06.214Z,21.02
2023-05-24T16:25:33.688Z,21.02
2023-05-24T16:28:01.247Z,20.83
2023-05-24T16:30:29.267Z,20.87
2023-05-24T16:32:56.993Z,20.76
2023-05-24T16:35:24.888Z,20.73
2023-05-24T16:37:52.343Z,20.64
2023-05-24T16:40:19.943Z,20.63
2023-05-24T16:42:48.480Z,20.57
2023-05-24T16:45:16.249Z,20.41
2023-05-24T16:47:43.838Z,20.44
2023-05-24T16:50:15.150Z,20.46
2023-05-24T16:52:43.173Z,20.47
2023-05-24T16:55:16.070Z,20.44
2023-05-24T16:57:43.544Z,20.30
2023-05-24T17:00:11.774Z,20.27
2023-05-24T17:02:39.398Z,20.27
2023-05-24T17:05:07.322Z,20.27
2023-05-24T17:07:34.980Z,20.26
2023-05-24T17:10:02.575Z,20.08
2023-05-24T17:12:30.257Z,20.13
2023-05-24T17:14:57.717Z,20.15
2023-05-24T17:17:25.373Z,20.21
2023-05-24T17:19:53.168Z,20.21
2023-05-24T17:22:21.469Z,20.01
2023-05-24T17:24:49.023Z,19.96
2023-05-24T17:27:19.880Z,19.97
2023-05-24T17:29:49.615Z,19.98
2023-05-24T17:32:17.173Z,19.95
2023-05-24T17:34:44.656Z,20.01
2023-05-24T17:37:12.093Z,20.02
2023-05-24T17:39:39.673Z,19.97
2023-05-24T17:42:07.464Z,19.89
2023-05-24T17:44:35.257Z,19.91
2023-05-24T17:47:02.768Z,19.87
2023-05-24T17:49:30.432Z,19.84
2023-05-24T17:52:00.866Z,19.81
2023-05-24T17:54:28.682Z,19.80
2023-05-24T17:56:56.798Z,19.71
2023-05-24T17:59:24.236Z,19.73
2023-05-24T18:01:51.856Z,19.65
2023-05-24T18:04:19.958Z,19.63
2023-05-24T18:06:47.403Z,19.52
2023-05-24T18:09:16.283Z,19.52
2023-05-24T18:11:43.810Z,19.55
2023-05-24T18:14:11.618Z,19.48
2023-05-24T18:16:39.228Z,19.38
2023-05-24T18:19:06.973Z,19.39
2023-05-24T18:21:34.541Z,19.34
2023-05-24T18:24:02.062Z,19.23
2023-05-24T18:26:29.438Z,19.14
2023-05-24T18:28:56.951Z,19.16
2023-05-24T18:31:24.538Z,19.15
2023-05-24T18:33:52.152Z,19.08
2023-05-24T18:36:19.664Z,19.01
2023-05-24T18:38:47.497Z,18.94
2023-05-24T18:41:16.562Z,18.96
2023-05-24T18:43:44.280Z,18.90
2023-05-24T18:46:15.159Z,18.81
2023-05-24T18:48:43.285Z,18.72
2023-05-24T18:51:11.677Z,18.68
2023-05-24T18:53:40.199Z,18.68
2023-05-24T18:56:07.666Z,18.53
2023-05-24T18:58:35.164Z,18.54
2023-05-24T19:01:02.762Z,18.53
2023-05-24T19:03:30.615Z,18.56
2023-05-24T19:05:58.077Z,18.50
2023-05-24T19:08:25.647Z,18.41
2023-05-24T19:10:53.106Z,18.34
2023-05-24T19:13:20.780Z,18.29
2023-05-24T19:15:48.454Z,18.14
2023-05-24T19:18:16.006Z,17.95
2023-05-24T19:20:43.543Z,17.96
2023-05-24T19:23:11.108Z,17.92
2023-05-24T19:25:42.167Z,17.89
2023-05-24T19:28:11.202Z,17.90
2023-05-24T19:30:38.685Z,17.90
2023-05-24T19:33:07.501Z,17.74
2023-05-24T19:35:35.240Z,17.67
2023-05-24T19:38:02.879Z,17.64
2023-05-24T19:40:30.503Z,17.60
2023-05-24T19:42:58.085Z,17.50
2023-05-24T19:45:25.793Z,17.47
2023-05-24T19:47:53.353Z,17.42
2023-05-24T19:50:20.824Z,17.27
2023-05-24T19:52:48.296Z,17.11
2023-05-24T19:55:15.752Z,17.04
2023-05-24T19:57:43.319Z,17.05
2023-05-24T20:00:12.504Z,17.11
2023-05-24T20:02:40.166Z,16.96
2023-05-24T20:05:09.054Z,17.01
2023-05-24T20:07:36.851Z,16.86
2023-05-24T20:10:05.624Z,16.83
2023-05-24T20:12:34.726Z,16.90
2023-05-24T20:15:02.772Z,16.66
2023-05-24T20:17:30.367Z,16.64
2023-05-24T20:19:57.898Z,16.52
2023-05-24T20:22:25.488Z,16.63
2023-05-24T20:24:52.904Z,16.44
2023-05-24T20:27:20.514Z,16.56
2023-05-24T20:29:48.422Z,16.48
2023-05-24T20:32:16.453Z,16.38
2023-05-24T20:34:43.920Z,16.22
2023-05-24T20:37:11.490Z,16.26
2023-05-24T20:39:38.935Z,16.16
2023-05-24T20:42:08.278Z,16.10
2023-05-24T20:44:35.928Z,16.03
2023-05-24T20:47:03.536Z,16.00
2023-05-24T20:49:31.026Z,16.02
2023-05-24T20:51:58.619Z,16.26
2023-05-24T20:54:26.213Z,16.11
2023-05-24T20:56:53.722Z,16.06
2023-05-24T20:59:21.194Z,16.16
2023-05-24T21:01:48.862Z,16.12
2023-05-24T21:04:16.412Z,16.06
2023-05-24T21:06:43.941Z,16.11
2023-05-24T21:09:11.642Z,15.97
2023-05-24T21:11:39.577Z,15.76
2023-05-24T21:14:07.009Z,15.85
2023-05-24T21:16:34.736Z,15.90
2023-05-24T21:19:02.407Z,15.86
2023-05-24T21:21:29.958Z,15.91
2023-05-24T21:23:57.964Z,15.82
2023-05-24T21:26:35.018Z,15.75
2023-05-24T21:29:05.688Z,15.81
2023-05-24T21:31:37.700Z,15.72
2023-05-24T21:34:06.440Z,15.83
2023-05-24T21:36:33.919Z,15.64
2023-05-24T21:39:03.980Z,15.72
2023-05-24T21:41:31.470Z,15.55
2023-05-24T21:43:58.961Z,15.38
2023-05-24T21:46:29.233Z,15.32
2023-05-24T21:48:59.551Z,15.35
2023-05-24T21:51:27.191Z,15.46
2023-05-24T21:53:54.753Z,15.32
2023-05-24T21:56:22.628Z,15.39
2023-05-24T21:58:50.117Z,15.51
2023-05-24T22:01:17.793Z,15.50
2023-05-24T22:03:45.366Z,15.44
2023-05-24T22:06:13.055Z,15.23
2023-05-24T22:08:40.696Z,15.13
2023-05-24T22:11:08.230Z,15.17
2023-05-24T22:13:35.722Z,15.32
2023-05-24T22:16:03.383Z,15.32
2023-05-24T22:18:30.882Z,15.15
2023-05-24T22:20:58.459Z,15.09
2023-05-24T22:23:26.612Z,15.13
2023-05-24T22:25:54.454Z,15.24
2023-05-24T22:28:21.961Z,15.00
2023-05-24T22:30:49.577Z,14.97
2023-05-24T22:33:17.106Z,14.86
2023-05-24T22:35:44.796Z,14.87
2023-05-24T22:38:12.711Z,14.84
2023-05-24T22:40:42.268Z,14.91
2023-05-24T22:43:09.877Z,14.80
2023-05-24T22:45:37.465Z,14.75
2023-05-24T22:48:05.076Z,14.65
2023-05-24T22:50:32.782Z,14.62
2023-05-24T22:53:00.239Z,14.62
2023-05-24T22:55:27.839Z,14.54
2023-05-24T22:57:55.269Z,14.54
2023-05-24T23:00:22.991Z,14.49
2023-05-24T23:02:50.587Z,14.49
2023-05-24T23:05:21.640Z,14.34
2023-05-24T23:07:49.536Z,14.32
2023-05-24T23:10:17.039Z,14.43
2023-05-24T23:12:44.677Z,14.43
2023-05-24T23:15:16.853Z,14.38
2023-05-24T23:17:44.767Z,14.40
2023-05-24T23:20:14.703Z,14.51
2023-05-24T23:22:42.348Z,14.40
2023-05-24T23:25:10.409Z,14.33
2023-05-24T23:27:38.043Z,14.29
2023-05-24T23:30:06.972Z,14.31
2023-05-24T23:32:34.496Z,14.39
2023-05-24T23:35:01.915Z,14.24
2023-05-24T23:37:29.400Z,14.21
2023-05-24T23:40:02.231Z,14.16
2023-05-24T23:42:30.065Z,14.17
2023-05-24T23:44:57.585Z,14.15
2023-05-24T23:47:25.546Z,14.15
2023-05-24T23:49:53.057Z,14.10
2023-05-24T23:52:20.742Z,14.02
2023-05-24T23:54:48.335Z,14.06
2023-05-24T23:57:15.861Z,13.90
2023-05-24T23:59:43.729Z,13.79
